Time;durP1;ratioP1;P1;durP2;ratioP2;P2;SDS_P1;SDS_P2;PMS_P1;PMS_P2;Temp;Humidity;BMP_temperature;BMP_pressure;BME280_temperature;BME280_humidity;BME280_pressure;Samples;Min_cycle;Max_cycle;Signal;HPM_P1;HPM_P2
2021/11/03 00:01:35;;;;;;;0.30;0.30;;;;;;;8.16;83.87;99050.97;5084959;28;20028;-69
2021/11/03 00:04:01;;;;;;;0.30;0.30;;;;;;;8.07;85.27;99051.16;5084655;28;20087;-68
2021/11/03 00:06:27;;;;;;;0.28;0.28;;;;;;;8.04;85.34;99054.66;5084804;28;20028;-69
2021/11/03 00:08:56;;;;;;;0.30;0.30;;;;;;;7.98;85.96;99043.59;5084741;28;20024;-69
2021/11/03 00:11:22;;;;;;;0.30;0.30;;;;;;;7.96;86.02;99040.19;5084615;28;20029;-69
2021/11/03 00:13:48;;;;;;;0.40;0.40;;;;;;;7.96;86.31;99046.22;5084531;28;20036;-69
2021/11/03 00:16:13;;;;;;;0.30;0.30;;;;;;;7.93;86.61;99051.44;5084508;28;20020;-69
2021/11/03 00:18:39;;;;;;;0.30;0.30;;;;;;;7.96;86.71;99050.50;5084594;28;20032;-69
2021/11/03 00:21:06;;;;;;;0.30;0.30;;;;;;;7.96;86.93;99055.69;5084411;28;20032;-70
2021/11/03 00:23:32;;;;;;;0.40;0.40;;;;;;;7.99;86.98;99051.31;5083865;28;20392;-70
2021/11/03 00:25:58;;;;;;;0.20;0.20;;;;;;;8.03;87.23;99054.69;5084362;28;20025;-70
2021/11/03 00:28:23;;;;;;;3.58;3.33;;;;;;;8.03;87.32;99050.41;5084293;28;20084;-69
2021/11/03 00:30:52;;;;;;;0.30;0.30;;;;;;;8.03;87.15;99049.53;5084721;28;20032;-71
2021/11/03 00:33:19;;;;;;;0.30;0.30;;;;;;;7.99;87.00;99046.16;5083985;28;20276;-70
2021/11/03 00:35:44;;;;;;;0.30;0.30;;;;;;;7.96;87.41;99045.34;5084131;28;20036;-71
2021/11/03 00:38:10;;;;;;;0.20;0.20;;;;;;;7.92;87.01;99044.56;5084016;28;20020;-71
2021/11/03 00:40:35;;;;;;;0.30;0.30;;;;;;;7.94;87.34;99043.66;5084116;28;20025;-70
2021/11/03 00:43:01;;;;;;;0.30;0.30;;;;;;;7.90;87.17;99042.03;5083739;28;20120;-70
2021/11/03 00:45:27;;;;;;;0.30;0.30;;;;;;;7.93;87.59;99046.28;5083844;28;20415;-74
2021/11/03 00:47:52;;;;;;;3.30;3.10;;;;;;;7.92;87.50;99044.56;5083966;28;20024;-71
2021/11/03 00:50:19;;;;;;;0.30;0.30;;;;;;;7.92;87.66;99036.81;5083823;28;20052;-71
2021/11/03 00:52:44;;;;;;;0.30;0.30;;;;;;;7.88;88.00;99038.63;5083503;28;20032;-71
2021/11/03 00:55:10;;;;;;;0.30;0.30;;;;;;;7.94;88.02;99041.06;5083625;28;20056;-72
2021/11/03 00:57:35;;;;;;;0.30;0.30;;;;;;;7.94;88.04;99038.50;5083356;28;20110;-71
2021/11/03 01:00:02;;;;;;;0.30;0.30;;;;;;;7.94;88.04;99035.91;5083457;28;20081;-72
2021/11/03 01:02:27;;;;;;;0.20;0.20;;;;;;;7.97;88.16;99034.16;5083760;28;20020;-71
2021/11/03 01:04:52;;;;;;;0.30;0.30;;;;;;;7.99;88.22;99040.13;5083172;28;20027;-71
2021/11/03 01:07:18;;;;;;;0.30;0.30;;;;;;;7.96;88.11;99024.69;5083159;28;20388;-71
2021/11/03 01:09:43;;;;;;;0.30;0.30;;;;;;;8.02;87.95;99047.84;5083561;28;20061;-71
2021/11/03 01:12:09;;;;;;;0.30;0.30;;;;;;;7.99;87.89;99037.53;5083494;28;20063;-71
2021/11/03 01:14:35;;;;;;;0.30;0.30;;;;;;;7.96;87.68;99037.59;5083522;28;20025;-70
2021/11/03 01:17:01;;;;;;;0.30;0.30;;;;;;;7.93;87.74;99033.34;5083562;28;20021;-71
2021/11/03 01:19:26;;;;;;;1.73;1.65;;;;;;;7.91;87.46;99035.97;5083511;28;20401;-71
2021/11/03 01:21:52;;;;;;;0.30;0.30;;;;;;;7.85;87.56;99041.25;5083601;28;20025;-70
2021/11/03 01:24:18;;;;;;;0.35;0.35;;;;;;;7.83;87.58;99035.25;5083216;28;20052;-70
2021/11/03 01:26:43;;;;;;;0.88;0.88;;;;;;;7.82;87.31;99038.72;5082826;28;20108;-70
2021/11/03 01:29:08;;;;;;;0.30;0.30;;;;;;;7.78;87.27;99039.69;5083240;28;20024;-70
2021/11/03 01:31:34;;;;;;;0.30;0.30;;;;;;;7.71;87.72;99032.91;5083452;28;20048;-70
2021/11/03 01:34:02;;;;;;;0.30;0.30;;;;;;;7.68;88.01;99029.50;5083021;28;20067;-71
2021/11/03 01:36:27;;;;;;;0.30;0.30;;;;;;;7.67;88.15;99026.94;5083051;28;20024;-70
2021/11/03 01:38:52;;;;;;;0.30;0.30;;;;;;;7.68;88.41;99029.50;5082866;28;20088;-71
2021/11/03 01:41:18;;;;;;;0.40;0.40;;;;;;;7.73;88.54;99034.56;5083233;28;20021;-70
2021/11/03 01:43:49;;;;;;;0.30;0.30;;;;;;;7.71;88.47;99032.91;5082983;28;20096;-70
2021/11/03 01:46:26;;;;;;;0.30;0.30;;;;;;;7.71;88.44;99038.94;5082014;28;20028;-71
2021/11/03 01:48:59;;;;;;;0.30;0.30;;;;;;;7.67;88.75;99029.53;5097781;28;20020;-71
2021/11/03 01:51:36;;;;;;;0.30;0.30;;;;;;;7.75;88.84;99037.13;5082068;28;20027;-71
2021/11/03 01:54:06;;;;;;;0.40;0.40;;;;;;;7.74;88.85;99032.84;5082316;28;20028;-71
2021/11/03 01:56:32;;;;;;;0.38;0.38;;;;;;;7.82;88.80;99036.16;5083179;28;20020;-72
2021/11/03 01:59:05;;;;;;;0.30;0.30;;;;;;;7.80;88.79;99024.97;5083172;28;20028;-72
2021/11/03 02:01:30;;;;;;;0.30;0.30;;;;;;;7.87;88.81;99031.75;5082726;28;20020;-70
2021/11/03 02:03:56;;;;;;;0.40;0.40;;;;;;;7.86;88.48;99036.94;5082710;28;20031;-71
2021/11/03 02:06:25;;;;;;;0.93;0.93;;;;;;;7.83;88.60;99030.09;5083076;28;20117;-71
2021/11/03 02:08:52;;;;;;;0.30;0.30;;;;;;;7.83;88.79;99029.25;5082666;28;20028;-71
2021/11/03 02:11:19;;;;;;;0.30;0.30;;;;;;;7.83;88.59;99029.25;5083002;28;20389;-71
2021/11/03 02:13:45;;;;;;;0.30;0.30;;;;;;;7.75;88.39;99024.22;5082980;28;20054;-72
2021/11/03 02:16:13;;;;;;;0.30;0.30;;;;;;;7.78;88.28;99022.44;5098453;28;20028;-71
2021/11/03 02:18:40;;;;;;;0.85;0.85;;;;;;;7.76;88.31;99033.69;5082869;28;20031;-70
2021/11/03 02:21:07;;;;;;;0.30;0.30;;;;;;;7.68;88.37;99021.75;5082737;28;20104;-71
2021/11/03 02:23:38;;;;;;;0.43;0.43;;;;;;;7.59;88.54;99015.94;5082480;28;20030;-71
2021/11/03 02:26:10;;;;;;;0.30;0.30;;;;;;;7.63;88.49;99026.16;5082774;28;20050;-72
2021/11/03 02:28:38;;;;;;;0.30;0.30;;;;;;;7.57;88.46;99011.63;5082825;28;20039;-71
2021/11/03 02:31:04;;;;;;;0.30;0.30;;;;;;;7.48;88.80;99004.03;5083005;28;20016;-71
2021/11/03 02:33:30;;;;;;;0.30;0.30;;;;;;;7.49;88.81;99010.06;5082558;28;20072;-71
2021/11/03 02:36:03;;;;;;;0.30;0.30;;;;;;;7.47;89.20;99015.28;5082752;28;20039;-71
2021/11/03 02:38:36;;;;;;;0.30;0.30;;;;;;;7.46;89.41;99010.13;5085445;28;20024;-71
2021/11/03 02:41:16;;;;;;;1.08;1.05;;;;;;;7.43;89.53;99017.03;5086583;28;20036;-71
2021/11/03 02:43:48;;;;;;;0.35;0.35;;;;;;;7.45;89.54;99006.69;5086177;28;20039;-71
2021/11/03 02:46:14;;;;;;;0.30;0.30;;;;;;;7.53;89.56;99020.31;5086448;28;20048;-70
2021/11/03 02:48:41;;;;;;;0.30;0.30;;;;;;;7.54;89.62;99022.00;5086389;28;20028;-71
2021/11/03 02:51:10;;;;;;;0.30;0.30;;;;;;;7.53;89.70;99017.72;5086258;28;20024;-70
2021/11/03 02:53:52;;;;;;;2.25;2.15;;;;;;;7.56;89.62;99030.59;5085190;28;20027;-72
2021/11/03 02:56:22;;;;;;;0.40;0.40;;;;;;;7.59;89.53;99023.69;5085944;28;20020;-71
2021/11/03 02:58:47;;;;;;;0.40;0.40;;;;;;;7.56;89.40;99029.72;5086031;28;20028;-71
2021/11/03 03:01:32;;;;;;;0.30;0.30;;;;;;;7.56;89.58;99030.59;5086033;28;20039;-72
2021/11/03 03:03:59;;;;;;;0.30;0.30;;;;;;;7.48;89.37;99016.09;5085973;28;20033;-71
2021/11/03 03:06:29;;;;;;;0.30;0.30;;;;;;;7.48;89.42;99013.50;5086017;28;20031;-71
2021/11/03 03:08:56;;;;;;;0.30;0.30;;;;;;;7.48;89.42;99021.25;5085682;28;20048;-72
2021/11/03 03:11:25;;;;;;;0.30;0.30;;;;;;;7.49;89.49;99022.97;5086143;28;20032;-71
2021/11/03 03:13:50;;;;;;;0.30;0.30;;;;;;;7.48;89.38;99024.72;5085419;28;20042;-71
2021/11/03 03:16:18;;;;;;;0.30;0.30;;;;;;;7.44;89.44;99020.50;5101452;28;20048;-71
2021/11/03 03:18:43;;;;;;;0.30;0.30;;;;;;;7.42;89.68;99019.66;5085753;28;20036;-72
2021/11/03 03:21:09;;;;;;;0.40;0.40;;;;;;;7.37;89.62;99014.56;5085562;28;20024;-72
2021/11/03 03:23:34;;;;;;;0.30;0.30;;;;;;;7.42;89.69;99023.09;5085109;28;20107;-72
2021/11/03 03:26:01;;;;;;;0.30;0.30;;;;;;;7.37;89.96;99013.72;5085306;28;20027;-72
2021/11/03 03:28:27;;;;;;;0.30;0.30;;;;;;;7.40;89.76;99011.06;5084466;28;20017;-72
2021/11/03 03:30:52;;;;;;;0.30;0.30;;;;;;;7.49;89.93;99017.81;5084692;28;20501;-72
2021/11/03 03:33:18;;;;;;;0.30;0.30;;;;;;;7.51;90.02;99019.47;5085326;28;20041;-72
2021/11/03 03:35:43;;;;;;;1.40;1.30;;;;;;;7.55;90.06;99018.56;5100869;28;20032;-72
2021/11/03 03:38:08;;;;;;;0.30;0.30;;;;;;;7.60;90.08;99018.47;5085138;28;20035;-72
2021/11/03 03:40:34;;;;;;;0.30;0.30;;;;;;;7.61;90.06;99017.59;5085354;28;20067;-72
2021/11/03 03:42:59;;;;;;;0.30;0.30;;;;;;;7.63;90.13;99021.00;5100649;28;20056;-72
2021/11/03 03:45:25;;;;;;;0.30;0.30;;;;;;;7.68;89.89;99029.50;5085032;28;20024;-72
2021/11/03 03:47:50;;;;;;;0.30;0.30;;;;;;;7.65;90.02;99024.38;5085083;28;20115;-72
2021/11/03 03:50:16;;;;;;;0.30;0.30;;;;;;;7.67;90.20;99024.34;5084406;28;20025;-71
2021/11/03 03:52:42;;;;;;;0.30;0.30;;;;;;;7.63;89.82;99010.66;5084786;28;20047;-72
2021/11/03 03:55:08;;;;;;;0.30;0.30;;;;;;;7.63;89.90;99015.84;5084825;28;20067;-72
2021/11/03 03:57:34;;;;;;;0.30;0.30;;;;;;;7.56;89.82;99004.75;5084953;28;20020;-72
2021/11/03 04:00:00;;;;;;;0.30;0.30;;;;;;;7.64;89.90;99021.84;5100513;28;20103;-72
2021/11/03 04:02:25;;;;;;;0.30;0.30;;;;;;;7.63;89.88;99021.00;5084702;28;20025;-72
2021/11/03 04:04:51;;;;;;;0.30;0.30;;;;;;;7.64;89.70;99022.69;5084580;28;20021;-72
2021/11/03 04:07:16;;;;;;;0.30;0.30;;;;;;;7.63;89.71;99014.97;5084321;28;20055;-71
2021/11/03 04:09:42;;;;;;;0.30;0.30;;;;;;;7.65;89.87;99029.56;5084677;28;20080;-72
2021/11/03 04:12:08;;;;;;;0.30;0.30;;;;;;;7.64;89.69;99024.41;5084439;28;20044;-70
2021/11/03 04:14:34;;;;;;;0.30;0.30;;;;;;;7.63;89.37;99025.31;5084475;28;20042;-72
2021/11/03 04:16:59;;;;;;;0.30;0.30;;;;;;;7.58;89.46;99022.81;5084544;28;20028;-73
2021/11/03 04:19:25;;;;;;;0.30;0.30;;;;;;;7.61;89.40;99027.91;5084345;28;20049;-73
2021/11/03 04:21:50;;;;;;;0.30;0.30;;;;;;;7.64;89.55;99034.75;5084411;28;20016;-73
2021/11/03 04:24:15;;;;;;;0.30;0.30;;;;;;;7.65;89.60;99023.56;5099484;28;20024;-72
2021/11/03 04:26:46;;;;;;;0.30;0.30;;;;;;;7.66;89.48;99041.59;5084132;28;20035;-73
2021/11/03 04:29:12;;;;;;;0.30;0.30;;;;;;;7.63;89.46;99023.59;5084230;28;20056;-72
2021/11/03 04:31:38;;;;;;;0.30;0.30;;;;;;;7.66;89.64;99028.69;5084516;28;20496;-73
2021/11/03 04:34:03;;;;;;;0.30;0.30;;;;;;;7.64;89.64;99024.41;5083850;28;20051;-73
2021/11/03 04:36:29;;;;;;;0.30;0.30;;;;;;;7.63;89.69;99022.72;5084175;28;20028;-74
2021/11/03 04:38:56;;;;;;;0.77;0.77;;;;;;;7.74;89.95;99043.19;5083760;28;20043;-74
2021/11/03 04:41:23;;;;;;;0.30;0.30;;;;;;;7.77;90.00;99037.97;5083964;28;20244;-73
2021/11/03 04:43:48;;;;;;;1.30;1.30;;;;;;;7.74;90.01;99043.19;5083621;28;20021;-73
2021/11/03 04:46:15;;;;;;;1.42;1.33;;;;;;;7.69;90.24;99028.63;5083812;28;20096;-73
2021/11/03 04:48:42;;;;;;;0.30;0.30;;;;;;;7.77;90.50;99044.00;5083989;28;20020;-73
2021/11/03 04:51:08;;;;;;;0.20;0.20;;;;;;;7.71;90.40;99022.56;5083970;28;20439;-73
2021/11/03 04:53:34;;;;;;;0.30;0.30;;;;;;;7.83;90.45;99032.66;5083771;28;20525;-73
2021/11/03 04:56:01;;;;;;;0.30;0.30;;;;;;;7.89;90.34;99042.88;5083778;28;20070;-73
2021/11/03 04:58:26;;;;;;;0.30;0.30;;;;;;;7.92;90.19;99044.56;5083507;28;20028;-73
2021/11/03 05:00:53;;;;;;;0.30;0.30;;;;;;;7.91;90.39;99043.72;5098368;28;20019;-73
2021/11/03 05:03:19;;;;;;;0.30;0.30;;;;;;;7.88;90.04;99053.25;5083636;28;20051;-74
2021/11/03 05:05:44;;;;;;;0.40;0.40;;;;;;;7.86;90.12;99045.53;5099060;28;20024;-74
2021/11/03 05:08:10;;;;;;;0.30;0.30;;;;;;;7.85;89.98;99056.75;5083391;28;20029;-74
2021/11/03 05:10:36;;;;;;;0.30;0.30;;;;;;;7.84;89.81;99057.66;5083726;28;20028;-74
2021/11/03 05:13:02;;;;;;;1.50;1.48;;;;;;;7.88;90.10;99061.88;5083833;28;20029;-73
2021/11/03 05:15:27;;;;;;;0.30;0.30;;;;;;;7.91;90.23;99058.38;5082110;28;20024;-74
2021/11/03 05:17:53;;;;;;;0.30;0.30;;;;;;;7.93;90.10;99066.94;5083197;28;20041;-74
2021/11/03 05:20:19;;;;;;;0.30;0.30;;;;;;;7.93;90.44;99057.47;5083384;28;20047;-71
2021/11/03 05:22:45;;;;;;;0.30;0.30;;;;;;;7.97;90.24;99057.41;5083226;28;20029;-72
2021/11/03 05:25:14;;;;;;;0.30;0.30;;;;;;;7.96;90.37;99064.31;5083342;28;20081;-73
2021/11/03 05:27:40;;;;;;;0.30;0.30;;;;;;;7.98;90.53;99066.84;5083639;28;20039;-73
2021/11/03 05:30:05;;;;;;;0.30;0.30;;;;;;;7.98;90.51;99070.31;5083322;28;20020;-73
2021/11/03 05:32:31;;;;;;;0.30;0.30;;;;;;;8.02;90.40;99065.94;5083034;28;20420;-71
2021/11/03 05:34:56;;;;;;;0.30;0.30;;;;;;;7.99;90.42;99068.53;5083458;28;20035;-72
2021/11/03 05:37:22;;;;;;;0.30;0.30;;;;;;;7.86;90.00;99036.94;5083076;28;20048;-70
2021/11/03 05:39:47;;;;;;;0.30;0.30;;;;;;;7.94;90.17;99061.75;5083133;28;20052;-71
2021/11/03 05:42:13;;;;;;;0.30;0.30;;;;;;;7.96;90.29;99061.72;5083143;28;20028;-71
2021/11/03 05:44:38;;;;;;;0.30;0.30;;;;;;;7.91;90.17;99056.63;5082986;28;20082;-71
2021/11/03 05:47:05;;;;;;;0.30;0.30;;;;;;;7.93;90.02;99072.97;5083303;28;20047;-72
2021/11/03 05:49:33;;;;;;;0.30;0.30;;;;;;;7.90;90.16;99069.59;5083133;28;20035;-72
2021/11/03 05:52:00;;;;;;;0.30;0.30;;;;;;;7.84;89.94;99059.38;5083007;28;20024;-73
2021/11/03 05:54:27;;;;;;;0.30;0.30;;;;;;;7.85;90.18;99061.06;5082725;28;20364;-73
2021/11/03 05:56:58;;;;;;;0.30;0.30;;;;;;;7.81;90.11;99065.47;5083129;28;20084;-72
2021/11/03 05:59:24;;;;;;;0.30;0.30;;;;;;;7.78;89.97;99066.34;5083027;28;20028;-73
2021/11/03 06:01:50;;;;;;;0.30;0.30;;;;;;;7.73;90.18;99068.16;5082926;28;20089;-73
2021/11/03 06:04:15;;;;;;;0.30;0.30;;;;;;;7.71;90.13;99063.91;5082796;28;20020;-73
2021/11/03 06:06:41;;;;;;;0.25;0.25;;;;;;;7.68;90.06;99065.66;5083069;28;20024;-74
2021/11/03 06:09:08;;;;;;;0.43;0.43;;;;;;;7.62;89.99;99060.59;5082469;28;20036;-73
2021/11/03 06:11:35;;;;;;;0.30;0.30;;;;;;;7.58;90.17;99061.56;5098680;28;20079;-74
2021/11/03 06:14:01;;;;;;;0.30;0.30;;;;;;;7.47;90.01;99055.72;5086855;28;20020;-73
2021/11/03 06:16:26;;;;;;;0.30;0.30;;;;;;;7.47;90.25;99050.56;5086779;28;20059;-72
2021/11/03 06:18:52;;;;;;;0.30;0.30;;;;;;;7.49;90.11;99067.72;5086644;28;20032;-73
2021/11/03 06:21:18;;;;;;;0.30;0.30;;;;;;;7.27;90.17;99034.53;5086685;28;20067;-73
2021/11/03 06:23:44;;;;;;;0.30;0.30;;;;;;;7.46;90.31;99059.19;5086254;28;20028;-72
2021/11/03 06:26:12;;;;;;;0.30;0.30;;;;;;;7.48;90.45;99078.06;5086609;28;20031;-73
2021/11/03 06:28:38;;;;;;;0.25;0.25;;;;;;;7.47;90.34;99077.25;5086828;28;20053;-74
2021/11/03 06:31:03;;;;;;;0.68;0.68;;;;;;;7.47;90.46;99085.00;5086579;28;20387;-73
2021/11/03 06:33:29;;;;;;;0.30;0.30;;;;;;;7.47;90.51;99086.72;5086165;28;20049;-73
2021/11/03 06:35:55;;;;;;;0.30;0.30;;;;;;;7.48;90.63;99084.09;5086195;28;20028;-73
2021/11/03 06:38:21;;;;;;;0.80;0.80;;;;;;;7.31;91.00;99056.00;5086212;28;20020;-73
2021/11/03 06:40:47;;;;;;;0.30;0.30;;;;;;;7.57;90.80;99093.44;5086442;28;20107;-73
2021/11/03 06:43:13;;;;;;;0.30;0.30;;;;;;;7.60;90.97;99095.97;5086088;28;20028;-72
2021/11/03 06:45:39;;;;;;;0.30;0.30;;;;;;;7.57;90.83;99096.84;5085973;28;20043;-73
2021/11/03 06:48:04;;;;;;;0.30;0.30;;;;;;;7.59;91.06;99094.25;5086256;28;20024;-73
2021/11/03 06:50:33;;;;;;;0.30;0.30;;;;;;;7.61;91.13;99095.06;5086173;28;20042;-73
2021/11/03 06:53:00;;;;;;;0.30;0.30;;;;;;;7.57;91.14;99098.59;5086027;28;20035;-73
2021/11/03 06:55:26;;;;;;;0.30;0.30;;;;;;;7.46;91.25;99085.03;5101721;28;20027;-73
2021/11/03 06:57:52;;;;;;;0.32;0.32;;;;;;;7.59;91.50;99102.00;5086091;28;20024;-74
2021/11/03 07:00:23;;;;;;;0.30;0.30;;;;;;;7.62;91.50;99107.09;5085984;28;20024;-73
2021/11/03 07:02:48;;;;;;;0.30;0.30;;;;;;;7.58;91.50;99097.72;5085994;28;20052;-73
2021/11/03 07:05:14;;;;;;;0.40;0.40;;;;;;;7.63;91.36;99097.63;5085754;28;20365;-72
2021/11/03 07:07:39;;;;;;;0.30;0.30;;;;;;;7.68;91.59;99111.31;5084498;28;20047;-72
2021/11/03 07:10:07;;;;;;;0.50;0.50;;;;;;;7.75;91.67;99118.06;5084574;28;20023;-73
2021/11/03 07:12:33;;;;;;;0.50;0.50;;;;;;;7.63;91.28;99102.78;5086011;28;20127;-73
2021/11/03 07:14:58;;;;;;;0.82;0.82;;;;;;;7.75;91.60;99118.06;5085644;28;20013;-73
2021/11/03 07:17:24;;;;;;;0.30;0.30;;;;;;;7.78;91.70;99125.78;5085739;28;20021;-73
2021/11/03 07:19:49;;;;;;;0.30;0.30;;;;;;;7.85;91.93;99126.53;5084678;28;20028;-73
2021/11/03 07:22:14;;;;;;;0.30;0.30;;;;;;;7.93;91.72;99126.38;5085169;28;20028;-73
2021/11/03 07:24:40;;;;;;;0.30;0.30;;;;;;;8.03;92.00;99129.66;5098956;28;20431;-73
2021/11/03 07:27:05;;;;;;;0.30;0.30;;;;;;;8.17;92.30;99129.38;5084711;28;20024;-73
2021/11/03 07:29:34;;;;;;;0.30;0.30;;;;;;;8.41;92.80;99133.25;5100241;28;20039;-73
2021/11/03 07:32:00;;;;;;;0.30;0.30;;;;;;;8.68;92.98;99131.00;5085526;28;20021;-73
2021/11/03 07:34:26;;;;;;;0.30;0.30;;;;;;;9.24;93.36;99135.81;5085233;28;20500;-73
2021/11/03 07:36:55;;;;;;;0.40;0.40;;;;;;;9.79;93.24;99130.19;5100978;28;20016;-73
2021/11/03 07:39:20;;;;;;;0.30;0.30;;;;;;;10.47;93.13;99139.63;5083985;28;20028;-74
2021/11/03 07:41:48;;;;;;;0.30;0.30;;;;;;;10.87;92.28;99140.22;5085439;28;20029;-73
2021/11/03 07:44:16;;;;;;;0.60;0.60;;;;;;;10.91;91.18;99129.69;5085248;28;20043;-74
2021/11/03 07:46:44;;;;;;;0.30;0.30;;;;;;;10.95;90.98;99138.25;5084278;28;20383;-74
2021/11/03 07:49:10;;;;;;;0.30;0.30;;;;;;;10.82;90.87;99132.56;5085041;28;20191;-74
2021/11/03 07:51:38;;;;;;;0.30;0.30;;;;;;;10.81;91.49;99138.66;5084086;28;20047;-74
2021/11/03 07:54:04;;;;;;;0.20;0.20;;;;;;;10.87;92.22;99143.66;5099276;28;20039;-73
2021/11/03 07:56:33;;;;;;;25.30;14.90;;;;;;;11.31;92.34;99144.91;5084911;28;20017;-74
2021/11/03 07:58:58;;;;;;;30.55;13.07;;;;;;;11.64;91.28;99136.94;5085001;28;20032;-73
2021/11/03 08:01:24;;;;;;;21.88;12.57;;;;;;;11.73;89.07;99142.72;5085122;28;20052;-73
2021/11/03 08:03:50;;;;;;;16.73;10.73;;;;;;;11.45;87.61;99147.09;5084879;28;20052;-74
2021/11/03 08:06:16;;;;;;;22.63;11.27;;;;;;;11.18;87.28;99143.63;5084490;28;20024;-74
2021/11/03 08:08:46;;;;;;;17.38;11.38;;;;;;;10.93;87.12;99155.59;5084783;28;20039;-73
2021/11/03 08:11:14;;;;;;;23.95;11.95;;;;;;;11.22;88.36;99153.88;5084897;28;20020;-74
2021/11/03 08:13:39;;;;;;;21.88;11.02;;;;;;;11.90;88.41;99153.41;5084613;28;20047;-74
2021/11/03 08:16:06;;;;;;;18.60;9.98;;;;;;;12.65;85.11;99157.78;5084730;28;20021;-74
2021/11/03 08:18:36;;;;;;;14.80;8.98;;;;;;;13.49;83.02;99146.72;5084690;28;20069;-73
2021/11/03 08:21:01;;;;;;;14.07;8.43;;;;;;;14.17;80.54;99138.75;5084897;28;20023;-74
2021/11/03 08:23:30;;;;;;;15.15;7.45;;;;;;;14.71;78.60;99153.75;5084150;28;20025;-74
2021/11/03 08:25:58;;;;;;;12.07;7.35;;;;;;;14.71;77.11;99145.94;5084341;28;20035;-73
2021/11/03 08:28:23;;;;;;;12.15;6.70;;;;;;;14.09;76.71;99145.13;5084092;28;20063;-73
2021/11/03 08:30:52;;;;;;;14.25;7.50;;;;;;;13.58;77.54;99155.94;5084411;28;20025;-74
2021/11/03 08:33:41;;;;;;;15.10;7.55;;;;;;;13.23;78.80;99163.38;5084071;28;20033;-73
2021/11/03 08:36:08;;;;;;;14.40;7.82;;;;;;;12.86;79.38;99152.66;5083670;28;20020;-74
2021/11/03 08:38:35;;;;;;;10.98;7.53;;;;;;;12.57;80.25;99152.81;5084092;28;20040;-73
2021/11/03 08:41:01;;;;;;;12.70;7.13;;;;;;;12.87;79.98;99157.81;5084374;28;20024;-74
2021/11/03 08:43:28;;;;;;;14.80;7.10;;;;;;;12.58;79.07;99158.91;5084308;28;20028;-74
2021/11/03 08:45:55;;;;;;;17.55;8.18;;;;;;;12.17;79.12;99169.91;5083961;28;20025;-74
2021/11/03 08:48:21;;;;;;;15.38;7.22;;;;;;;11.77;79.91;99173.75;5083853;28;20075;-73
2021/11/03 08:50:47;;;;;;;12.25;7.68;;;;;;;11.40;80.57;99157.63;5084543;28;20028;-75
2021/11/03 08:53:15;;;;;;;18.77;8.05;;;;;;;11.09;81.23;99136.94;5084028;28;20017;-74
2021/11/03 08:55:42;;;;;;;21.77;7.75;;;;;;;11.16;82.10;99172.25;5083809;28;20017;-73
2021/11/03 08:58:10;;;;;;;15.00;8.27;;;;;;;11.00;82.52;99175.31;5083638;28;20054;-74
2021/11/03 09:00:38;;;;;;;14.02;8.82;;;;;;;10.89;82.46;99174.78;5083781;28;20031;-73
2021/11/03 09:03:04;;;;;;;21.25;9.27;;;;;;;10.75;82.96;99172.59;5083705;28;20036;-72
2021/11/03 09:05:30;;;;;;;15.68;9.65;;;;;;;10.62;82.96;99177.28;5083799;28;20036;-74
2021/11/03 09:07:57;;;;;;;19.85;11.02;;;;;;;10.47;83.43;99178.53;5083722;28;20035;-74
2021/11/03 09:10:24;;;;;;;15.25;9.52;;;;;;;10.36;83.93;99173.63;5083672;28;20082;-73
2021/11/03 09:12:50;;;;;;;15.77;9.40;;;;;;;10.21;84.00;99170.56;5083748;28;20516;-74
2021/11/03 09:15:18;;;;;;;17.52;9.48;;;;;;;10.29;84.62;99181.59;5083402;28;20062;-75
2021/11/03 09:17:44;;;;;;;20.92;10.18;;;;;;;10.26;85.21;99184.25;5083704;28;20024;-72
2021/11/03 09:20:12;;;;;;;18.38;9.55;;;;;;;10.32;86.00;99175.44;5083592;28;20063;-73
2021/11/03 09:22:38;;;;;;;16.65;9.27;;;;;;;10.61;85.47;99172.97;5083561;28;20020;-71
2021/11/03 09:25:06;;;;;;;23.80;11.32;;;;;;;10.65;84.86;99180.63;5083577;28;20027;-72
2021/11/03 09:27:32;;;;;;;22.73;10.43;;;;;;;10.70;84.21;99170.13;5083448;28;20020;-73
2021/11/03 09:29:58;;;;;;;20.83;11.05;;;;;;;10.77;84.11;99176.84;5099207;28;20468;-73
2021/11/03 09:32:25;;;;;;;23.50;11.70;;;;;;;10.77;83.98;99181.16;5083659;28;20020;-74
2021/11/03 09:34:51;;;;;;;23.33;15.30;;;;;;;10.60;83.47;99173.88;5083529;28;20045;-74
2021/11/03 09:37:22;;;;;;;29.42;13.82;;;;;;;10.34;84.00;99165.03;5083594;28;20028;-73
2021/11/03 09:39:49;;;;;;;23.52;14.55;;;;;;;10.46;84.36;99182.00;5081976;28;20031;-73
2021/11/03 09:42:17;;;;;;;27.38;14.18;;;;;;;10.44;84.15;99182.06;5083489;28;20040;-74
2021/11/03 09:44:45;;;;;;;19.75;12.70;;;;;;;10.38;84.17;99190.00;5083215;28;20496;-74
2021/11/03 09:47:14;;;;;;;23.45;13.90;;;;;;;10.22;83.77;99186.97;5082828;28;20121;-73
2021/11/03 09:49:43;;;;;;;22.25;12.60;;;;;;;10.13;84.01;99182.88;5083649;28;20078;-73
2021/11/03 09:52:19;;;;;;;20.92;13.23;;;;;;;9.96;83.55;99183.31;5083567;28;20012;-72
2021/11/03 09:54:49;;;;;;;22.55;13.60;;;;;;;9.87;84.70;99179.22;5083129;28;20025;-73
2021/11/03 09:57:46;;;;;;;23.02;13.23;;;;;;;9.92;84.81;99188.56;5082646;28;20077;-72
2021/11/03 10:00:44;;;;;;;25.90;13.00;;;;;;;9.79;84.79;99184.59;5083263;28;20032;-73
2021/11/03 10:03:33;;;;;;;29.27;14.55;;;;;;;9.82;85.08;99202.69;5083124;28;20111;-73
2021/11/03 10:06:07;;;;;;;24.00;12.90;;;;;;;9.78;85.46;99195.84;5083213;28;20028;-73
2021/11/03 10:08:45;;;;;;;26.83;13.48;;;;;;;9.77;85.61;99196.75;5083308;28;20024;-72
2021/11/03 10:11:16;;;;;;;20.83;13.40;;;;;;;9.86;85.57;99199.09;5083188;28;20024;-73
2021/11/03 10:13:46;;;;;;;22.92;13.45;;;;;;;9.90;85.97;99200.72;5083178;28;20012;-74
2021/11/03 10:16:11;;;;;;;21.63;12.95;;;;;;;9.95;85.33;99208.41;5083219;28;20361;-74
2021/11/03 10:18:51;;;;;;;22.00;12.05;;;;;;;9.99;85.43;99204.84;5083308;28;20126;-74
2021/11/03 10:21:32;;;;;;;25.05;12.48;;;;;;;10.11;85.82;99205.41;5098831;28;20078;-74
2021/11/03 10:24:24;;;;;;;16.45;10.65;;;;;;;10.02;85.40;99193.53;5082984;28;20052;-73
2021/11/03 10:26:52;;;;;;;16.80;10.70;;;;;;;10.12;85.25;99212.31;5082908;28;20071;-73
2021/11/03 10:29:28;;;;;;;16.65;10.98;;;;;;;10.23;85.28;99209.41;5083092;28;20016;-74
2021/11/03 10:32:06;;;;;;;23.13;10.80;;;;;;;10.25;84.77;99210.25;5083263;28;20032;-74
2021/11/03 10:34:34;;;;;;;20.33;11.05;;;;;;;10.28;85.18;99217.94;5082834;28;20041;-73
2021/11/03 10:37:11;;;;;;;19.70;11.20;;;;;;;10.26;85.25;99219.72;5098448;28;20031;-73
2021/11/03 10:39:55;;;;;;;15.63;10.85;;;;;;;10.23;84.95;99222.38;5082745;28;20084;-73
2021/11/03 10:42:31;;;;;;;17.60;10.05;;;;;;;10.19;84.70;99221.63;5082949;28;20024;-73
2021/11/03 10:45:17;;;;;;;20.50;9.98;;;;;;;10.20;85.00;99219.88;5082671;28;20055;-72
2021/11/03 10:47:50;;;;;;;14.40;9.75;;;;;;;10.19;85.10;99221.63;5082885;28;20028;-73
2021/11/03 10:50:19;;;;;;;17.65;10.18;;;;;;;10.26;85.35;99223.16;5098368;28;20052;-73
2021/11/03 10:53:18;;;;;;;16.42;9.48;;;;;;;10.22;85.32;99220.69;5082641;28;20081;-73
2021/11/03 10:55:57;;;;;;;18.52;9.25;;;;;;;10.20;85.27;99217.28;5082732;28;20025;-73
2021/11/03 10:58:36;;;;;;;22.02;10.13;;;;;;;10.31;85.58;99219.59;5082781;28;20028;-73
2021/11/03 11:01:13;;;;;;;14.23;9.75;;;;;;;10.46;86.08;99226.13;5086745;28;20327;-74
2021/11/03 11:04:01;;;;;;;15.77;8.25;;;;;;;10.53;85.02;99223.34;5086366;28;20035;-74
2021/11/03 11:06:29;;;;;;;18.88;10.82;;;;;;;10.69;85.41;99235.06;5086109;28;20080;-73
2021/11/03 11:09:14;;;;;;;22.48;10.60;;;;;;;10.87;85.64;99231.09;5086010;28;20085;-72
2021/11/03 11:11:42;;;;;;;19.73;12.55;;;;;;;11.02;85.17;99235.81;5086338;28;20108;-72
2021/11/03 11:14:18;;;;;;;22.63;12.38;;;;;;;11.25;84.83;99226.50;5086324;28;20460;-73
2021/11/03 11:16:55;;;;;;;19.55;11.10;;;;;;;11.48;84.68;99226.69;5084632;28;20028;-73
2021/11/03 11:19:50;;;;;;;22.02;11.10;;;;;;;11.63;82.26;99226.22;5086333;28;20359;-73
2021/11/03 11:22:47;;;;;;;25.10;10.75;;;;;;;11.63;81.47;99228.81;5083650;28;20088;-74
2021/11/03 11:25:19;;;;;;;23.17;11.32;;;;;;;11.63;83.43;99199.34;5085736;28;20017;-73
2021/11/03 11:28:12;;;;;;;18.25;10.20;;;;;;;11.66;80.45;99230.47;5084955;28;20024;-74
2021/11/03 11:30:52;;;;;;;24.83;12.52;;;;;;;11.49;80.75;99231.00;5085296;28;20102;-74
2021/11/03 11:33:37;;;;;;;19.92;11.27;;;;;;;11.38;81.16;99224.38;5085734;28;20052;-74
2021/11/03 11:36:33;;;;;;;14.27;9.45;;;;;;;11.26;79.89;99223.00;5085483;28;20024;-74
2021/11/03 11:39:03;;;;;;;21.02;10.70;;;;;;;11.06;80.04;99221.00;5083097;28;20067;-74
2021/11/03 11:41:36;;;;;;;18.10;9.60;;;;;;;10.95;81.34;99229.13;5085674;28;20029;-73